sensor_id;sensor_type;location;lat;lon;timestamp;P1;durP1;ratioP1;P2;durP2;ratioP2
1014;SDS011;8170;48.118;11.628;2023-03-31T00:00:38;5.65;;;5.13;;
1014;SDS011;8170;48.118;11.628;2023-03-31T00:01:42;6.72;;;4.85;;
1014;SDS011;8170;48.118;11.628;2023-03-31T00:02:45;6.63;;;5.38;;
1014;SDS011;8170;48.118;11.628;2023-03-31T00:03:49;5.07;;;4.55;;
1014;SDS011;8170;48.118;11.628;2023-03-31T00:04:51;8.32;;;5.95;;
1014;SDS011;8170;48.118;11.628;2023-03-31T00:05:54;13.98;;;6.03;;
1014;SDS011;8170;48.118;11.628;2023-03-31T00:06:58;6.45;;;5.47;;
1014;SDS011;8170;48.118;11.628;2023-03-31T00:08:02;7.82;;;5.72;;
1014;SDS011;8170;48.118;11.628;2023-03-31T00:09:04;8.45;;;6.22;;
1014;SDS011;8170;48.118;11.628;2023-03-31T00:10:11;8.45;;;5.88;;
1014;SDS011;8170;48.118;11.628;2023-03-31T00:11:19;6.50;;;5.60;;
1014;SDS011;8170;48.118;11.628;2023-03-31T00:12:23;6.55;;;5.30;;
1014;SDS011;8170;48.118;11.628;2023-03-31T00:13:25;7.07;;;5.63;;
1014;SDS011;8170;48.118;11.628;2023-03-31T00:14:28;7.25;;;5.60;;
1014;SDS011;8170;48.118;11.628;2023-03-31T00:15:30;6.82;;;6.13;;
1014;SDS011;8170;48.118;11.628;2023-03-31T00:16:33;6.10;;;5.13;;
1014;SDS011;8170;48.118;11.628;2023-03-31T00:17:36;7.50;;;5.88;;
1014;SDS011;8170;48.118;11.628;2023-03-31T00:18:41;8.30;;;6.78;;
1014;SDS011;8170;48.118;11.628;2023-03-31T00:19:48;7.68;;;5.60;;
1014;SDS011;8170;48.118;11.628;2023-03-31T00:20:51;9.52;;;6.80;;
1014;SDS011;8170;48.118;11.628;2023-03-31T00:21:54;9.57;;;6.38;;
1014;SDS011;8170;48.118;11.628;2023-03-31T00:23:02;7.97;;;5.43;;
1014;SDS011;8170;48.118;11.628;2023-03-31T00:24:07;9.20;;;5.70;;
1014;SDS011;8170;48.118;11.628;2023-03-31T00:25:12;8.85;;;5.07;;
1014;SDS011;8170;48.118;11.628;2023-03-31T00:26:14;9.02;;;5.45;;
1014;SDS011;8170;48.118;11.628;2023-03-31T00:27:17;8.10;;;5.90;;
1014;SDS011;8170;48.118;11.628;2023-03-31T00:28:20;7.15;;;5.68;;
1014;SDS011;8170;48.118;11.628;2023-03-31T00:29:23;9.35;;;5.82;;
1014;SDS011;8170;48.118;11.628;2023-03-31T00:30:25;7.47;;;5.43;;
1014;SDS011;8170;48.118;11.628;2023-03-31T00:31:28;9.73;;;5.40;;
1014;SDS011;8170;48.118;11.628;2023-03-31T00:32:31;6.07;;;4.93;;
1014;SDS011;8170;48.118;11.628;2023-03-31T00:33:34;9.43;;;6.03;;
1014;SDS011;8170;48.118;11.628;2023-03-31T00:34:38;10.07;;;6.20;;
1014;SDS011;8170;48.118;11.628;2023-03-31T00:35:42;9.85;;;6.22;;
1014;SDS011;8170;48.118;11.628;2023-03-31T00:36:46;8.50;;;6.72;;
1014;SDS011;8170;48.118;11.628;2023-03-31T00:37:49;6.97;;;6.20;;
1014;SDS011;8170;48.118;11.628;2023-03-31T00:38:51;9.82;;;6.90;;
1014;SDS011;8170;48.118;11.628;2023-03-31T00:39:55;9.07;;;6.35;;
1014;SDS011;8170;48.118;11.628;2023-03-31T00:40:58;6.45;;;5.85;;
1014;SDS011;8170;48.118;11.628;2023-03-31T00:42:01;8.70;;;6.88;;
1014;SDS011;8170;48.118;11.628;2023-03-31T00:43:15;6.30;;;5.43;;
1014;SDS011;8170;48.118;11.628;2023-03-31T00:44:28;9.55;;;6.38;;
1014;SDS011;8170;48.118;11.628;2023-03-31T00:45:34;6.43;;;5.75;;
1014;SDS011;8170;48.118;11.628;2023-03-31T00:46:38;6.90;;;5.75;;
1014;SDS011;8170;48.118;11.628;2023-03-31T00:47:45;6.55;;;5.22;;
1014;SDS011;8170;48.118;11.628;2023-03-31T00:48:50;11.23;;;6.70;;
1014;SDS011;8170;48.118;11.628;2023-03-31T00:49:59;7.40;;;6.18;;
1014;SDS011;8170;48.118;11.628;2023-03-31T00:51:03;6.95;;;5.90;;
1014;SDS011;8170;48.118;11.628;2023-03-31T00:52:09;6.60;;;5.90;;
1014;SDS011;8170;48.118;11.628;2023-03-31T00:53:17;7.43;;;6.63;;
1014;SDS011;8170;48.118;11.628;2023-03-31T00:54:23;7.78;;;6.25;;
1014;SDS011;8170;48.118;11.628;2023-03-31T00:55:30;7.32;;;6.28;;
1014;SDS011;8170;48.118;11.628;2023-03-31T00:56:37;11.20;;;6.22;;
1014;SDS011;8170;48.118;11.628;2023-03-31T00:57:43;7.47;;;6.65;;
1014;SDS011;8170;48.118;11.628;2023-03-31T00:58:47;9.20;;;7.63;;
1014;SDS011;8170;48.118;11.628;2023-03-31T00:59:51;6.80;;;5.93;;
1014;SDS011;8170;48.118;11.628;2023-03-31T01:00:57;9.50;;;7.03;;
1014;SDS011;8170;48.118;11.628;2023-03-31T01:02:03;10.38;;;6.95;;
1014;SDS011;8170;48.118;11.628;2023-03-31T01:03:07;10.65;;;7.32;;
1014;SDS011;8170;48.118;11.628;2023-03-31T01:04:10;9.70;;;6.63;;
1014;SDS011;8170;48.118;11.628;2023-03-31T01:05:18;10.70;;;7.32;;
1014;SDS011;8170;48.118;11.628;2023-03-31T01:06:22;9.60;;;7.90;;
1014;SDS011;8170;48.118;11.628;2023-03-31T01:07:28;11.05;;;6.40;;
1014;SDS011;8170;48.118;11.628;2023-03-31T01:08:37;8.40;;;6.30;;
1014;SDS011;8170;48.118;11.628;2023-03-31T01:09:41;10.38;;;7.30;;
1014;SDS011;8170;48.118;11.628;2023-03-31T01:10:49;7.53;;;6.72;;
1014;SDS011;8170;48.118;11.628;2023-03-31T01:11:54;8.70;;;7.20;;
1014;SDS011;8170;48.118;11.628;2023-03-31T01:12:57;8.02;;;7.20;;
1014;SDS011;8170;48.118;11.628;2023-03-31T01:14:00;11.00;;;8.00;;
1014;SDS011;8170;48.118;11.628;2023-03-31T01:15:05;9.80;;;6.15;;
1014;SDS011;8170;48.118;11.628;2023-03-31T01:16:08;9.60;;;6.30;;
1014;SDS011;8170;48.118;11.628;2023-03-31T01:17:11;9.57;;;6.35;;
1014;SDS011;8170;48.118;11.628;2023-03-31T01:18:19;6.15;;;5.55;;
1014;SDS011;8170;48.118;11.628;2023-03-31T01:19:25;9.38;;;6.38;;
1014;SDS011;8170;48.118;11.628;2023-03-31T01:20:40;8.77;;;6.25;;
1014;SDS011;8170;48.118;11.628;2023-03-31T01:21:57;7.18;;;5.75;;
1014;SDS011;8170;48.118;11.628;2023-03-31T01:23:30;8.50;;;6.72;;
1014;SDS011;8170;48.118;11.628;2023-03-31T01:26:35;8.45;;;6.93;;
1014;SDS011;8170;48.118;11.628;2023-03-31T01:29:38;8.30;;;6.07;;
1014;SDS011;8170;48.118;11.628;2023-03-31T01:31:05;9.57;;;7.22;;
1014;SDS011;8170;48.118;11.628;2023-03-31T01:32:37;11.13;;;7.78;;
1014;SDS011;8170;48.118;11.628;2023-03-31T01:37:33;7.57;;;6.70;;
1014;SDS011;8170;48.118;11.628;2023-03-31T01:39:22;11.15;;;7.50;;
1014;SDS011;8170;48.118;11.628;2023-03-31T01:41:09;8.30;;;7.50;;
1014;SDS011;8170;48.118;11.628;2023-03-31T01:42:21;8.73;;;6.78;;
1014;SDS011;8170;48.118;11.628;2023-03-31T01:43:31;9.95;;;6.82;;
1014;SDS011;8170;48.118;11.628;2023-03-31T01:44:40;8.02;;;6.35;;
1014;SDS011;8170;48.118;11.628;2023-03-31T01:45:51;8.50;;;7.22;;
1014;SDS011;8170;48.118;11.628;2023-03-31T01:47:00;9.32;;;7.10;;
1014;SDS011;8170;48.118;11.628;2023-03-31T01:48:10;9.10;;;7.10;;
1014;SDS011;8170;48.118;11.628;2023-03-31T01:49:19;7.53;;;6.47;;
1014;SDS011;8170;48.118;11.628;2023-03-31T01:50:27;7.35;;;6.45;;
1014;SDS011;8170;48.118;11.628;2023-03-31T01:51:34;8.75;;;7.35;;
1014;SDS011;8170;48.118;11.628;2023-03-31T01:52:48;8.48;;;7.15;;
1014;SDS011;8170;48.118;11.628;2023-03-31T01:54:00;9.45;;;7.22;;
1014;SDS011;8170;48.118;11.628;2023-03-31T01:55:08;8.77;;;7.50;;
1014;SDS011;8170;48.118;11.628;2023-03-31T01:56:18;11.55;;;7.93;;
1014;SDS011;8170;48.118;11.628;2023-03-31T01:57:28;10.82;;;7.50;;
1014;SDS011;8170;48.118;11.628;2023-03-31T01:58:35;12.32;;;7.95;;
1014;SDS011;8170;48.118;11.628;2023-03-31T01:59:42;9.15;;;7.28;;
1014;SDS011;8170;48.118;11.628;2023-03-31T02:00:52;8.40;;;6.43;;
1014;SDS011;8170;48.118;11.628;2023-03-31T02:02:02;9.90;;;7.03;;
1014;SDS011;8170;48.118;11.628;2023-03-31T02:03:10;8.55;;;7.50;;
1014;SDS011;8170;48.118;11.628;2023-03-31T02:04:18;8.93;;;6.90;;
1014;SDS011;8170;48.118;11.628;2023-03-31T02:05:25;8.00;;;7.20;;
1014;SDS011;8170;48.118;11.628;2023-03-31T02:06:34;7.40;;;6.70;;
1014;SDS011;8170;48.118;11.628;2023-03-31T02:07:41;8.23;;;6.53;;
1014;SDS011;8170;48.118;11.628;2023-03-31T02:08:48;10.10;;;6.90;;
1014;SDS011;8170;48.118;11.628;2023-03-31T02:09:56;10.30;;;6.80;;
1014;SDS011;8170;48.118;11.628;2023-03-31T02:11:03;6.60;;;5.90;;
1014;SDS011;8170;48.118;11.628;2023-03-31T02:12:08;8.75;;;6.10;;
1014;SDS011;8170;48.118;11.628;2023-03-31T02:13:12;8.32;;;6.82;;
1014;SDS011;8170;48.118;11.628;2023-03-31T02:14:17;8.10;;;6.63;;
1014;SDS011;8170;48.118;11.628;2023-03-31T02:15:27;8.48;;;6.53;;
1014;SDS011;8170;48.118;11.628;2023-03-31T02:16:33;9.32;;;7.10;;
1014;SDS011;8170;48.118;11.628;2023-03-31T02:17:42;7.88;;;6.88;;
1014;SDS011;8170;48.118;11.628;2023-03-31T02:18:47;9.10;;;6.60;;
1014;SDS011;8170;48.118;11.628;2023-03-31T02:19:53;10.23;;;7.50;;
1014;SDS011;8170;48.118;11.628;2023-03-31T02:20:57;6.63;;;5.93;;
1014;SDS011;8170;48.118;11.628;2023-03-31T02:22:02;6.47;;;5.78;;
1014;SDS011;8170;48.118;11.628;2023-03-31T02:23:06;7.53;;;6.30;;
1014;SDS011;8170;48.118;11.628;2023-03-31T02:24:12;9.35;;;7.50;;
1014;SDS011;8170;48.118;11.628;2023-03-31T02:25:18;6.72;;;5.47;;
1014;SDS011;8170;48.118;11.628;2023-03-31T02:26:21;9.85;;;6.47;;
1014;SDS011;8170;48.118;11.628;2023-03-31T02:27:32;9.32;;;6.30;;
1014;SDS011;8170;48.118;11.628;2023-03-31T02:28:36;9.77;;;6.95;;
1014;SDS011;8170;48.118;11.628;2023-03-31T02:29:40;8.25;;;7.13;;
1014;SDS011;8170;48.118;11.628;2023-03-31T02:30:45;7.10;;;6.40;;
1014;SDS011;8170;48.118;11.628;2023-03-31T02:31:55;6.45;;;5.70;;
1014;SDS011;8170;48.118;11.628;2023-03-31T02:33:01;10.25;;;6.15;;
1014;SDS011;8170;48.118;11.628;2023-03-31T02:34:05;7.80;;;6.70;;
1014;SDS011;8170;48.118;11.628;2023-03-31T02:35:09;9.55;;;6.32;;
1014;SDS011;8170;48.118;11.628;2023-03-31T02:36:20;7.72;;;6.65;;
1014;SDS011;8170;48.118;11.628;2023-03-31T02:37:24;7.93;;;7.13;;
1014;SDS011;8170;48.118;11.628;2023-03-31T02:38:29;9.90;;;6.75;;
1014;SDS011;8170;48.118;11.628;2023-03-31T02:39:35;8.90;;;6.50;;
1014;SDS011;8170;48.118;11.628;2023-03-31T02:40:41;9.02;;;6.30;;
1014;SDS011;8170;48.118;11.628;2023-03-31T02:41:43;7.50;;;6.35;;
1014;SDS011;8170;48.118;11.628;2023-03-31T02:42:47;7.50;;;6.75;;
1014;SDS011;8170;48.118;11.628;2023-03-31T02:43:50;7.43;;;6.68;;
1014;SDS011;8170;48.118;11.628;2023-03-31T02:45:00;9.40;;;7.32;;
1014;SDS011;8170;48.118;11.628;2023-03-31T02:46:03;6.85;;;6.15;;
1014;SDS011;8170;48.118;11.628;2023-03-31T02:47:07;6.07;;;5.47;;
1014;SDS011;8170;48.118;11.628;2023-03-31T02:48:14;8.65;;;6.93;;
1014;SDS011;8170;48.118;11.628;2023-03-31T02:49:20;7.35;;;6.07;;
1014;SDS011;8170;48.118;11.628;2023-03-31T02:50:24;8.40;;;6.68;;
1014;SDS011;8170;48.118;11.628;2023-03-31T02:51:38;8.50;;;5.55;;
1014;SDS011;8170;48.118;11.628;2023-03-31T02:53:07;9.77;;;6.72;;
1014;SDS011;8170;48.118;11.628;2023-03-31T02:54:19;7.95;;;6.43;;
1014;SDS011;8170;48.118;11.628;2023-03-31T02:55:51;8.88;;;6.38;;
1014;SDS011;8170;48.118;11.628;2023-03-31T02:57:17;8.68;;;6.30;;
1014;SDS011;8170;48.118;11.628;2023-03-31T02:58:35;7.20;;;6.50;;
1014;SDS011;8170;48.118;11.628;2023-03-31T02:59:54;7.50;;;6.70;;
1014;SDS011;8170;48.118;11.628;2023-03-31T03:01:10;9.82;;;6.47;;
1014;SDS011;8170;48.118;11.628;2023-03-31T03:02:27;10.02;;;7.35;;
1014;SDS011;8170;48.118;11.628;2023-03-31T03:03:38;11.82;;;6.55;;
1014;SDS011;8170;48.118;11.628;2023-03-31T03:04:54;7.57;;;6.28;;
1014;SDS011;8170;48.118;11.628;2023-03-31T03:06:10;10.85;;;7.20;;
1014;SDS011;8170;48.118;11.628;2023-03-31T03:07:33;8.13;;;5.70;;
1014;SDS011;8170;48.118;11.628;2023-03-31T03:08:47;7.45;;;5.80;;
1014;SDS011;8170;48.118;11.628;2023-03-31T03:10:01;8.65;;;6.53;;
1014;SDS011;8170;48.118;11.628;2023-03-31T03:11:10;10.88;;;6.60;;
1014;SDS011;8170;48.118;11.628;2023-03-31T03:12:23;7.10;;;5.60;;
1014;SDS011;8170;48.118;11.628;2023-03-31T03:13:30;7.65;;;6.68;;
1014;SDS011;8170;48.118;11.628;2023-03-31T03:14:44;10.50;;;7.05;;
1014;SDS011;8170;48.118;11.628;2023-03-31T03:15:53;8.30;;;6.03;;
1014;SDS011;8170;48.118;11.628;2023-03-31T03:17:01;6.70;;;6.00;;
1014;SDS011;8170;48.118;11.628;2023-03-31T03:18:09;7.25;;;5.40;;
1014;SDS011;8170;48.118;11.628;2023-03-31T03:19:16;7.97;;;6.18;;
1014;SDS011;8170;48.118;11.628;2023-03-31T03:20:22;6.15;;;5.55;;
1014;SDS011;8170;48.118;11.628;2023-03-31T03:21:24;6.90;;;5.47;;
1014;SDS011;8170;48.118;11.628;2023-03-31T03:22:28;6.25;;;5.65;;
1014;SDS011;8170;48.118;11.628;2023-03-31T03:23:30;5.93;;;5.32;;
1014;SDS011;8170;48.118;11.628;2023-03-31T03:24:33;7.00;;;6.35;;
1014;SDS011;8170;48.118;11.628;2023-03-31T03:25:35;8.13;;;6.70;;
1014;SDS011;8170;48.118;11.628;2023-03-31T03:26:39;7.20;;;5.95;;
1014;SDS011;8170;48.118;11.628;2023-03-31T03:27:41;10.77;;;6.70;;
1014;SDS011;8170;48.118;11.628;2023-03-31T03:28:45;7.30;;;6.25;;
1014;SDS011;8170;48.118;11.628;2023-03-31T03:29:48;6.88;;;6.07;;
1014;SDS011;8170;48.118;11.628;2023-03-31T03:30:51;5.93;;;5.32;;
1014;SDS011;8170;48.118;11.628;2023-03-31T03:31:54;9.05;;;7.22;;
1014;SDS011;8170;48.118;11.628;2023-03-31T03:32:57;7.75;;;6.38;;
1014;SDS011;8170;48.118;11.628;2023-03-31T03:33:59;10.00;;;6.75;;
1014;SDS011;8170;48.118;11.628;2023-03-31T03:35:04;8.95;;;6.85;;
1014;SDS011;8170;48.118;11.628;2023-03-31T03:36:07;7.72;;;6.20;;
1014;SDS011;8170;48.118;11.628;2023-03-31T03:37:11;8.55;;;6.10;;
1014;SDS011;8170;48.118;11.628;2023-03-31T03:38:13;9.85;;;6.97;;
1014;SDS011;8170;48.118;11.628;2023-03-31T03:39:16;9.00;;;6.60;;
1014;SDS011;8170;48.118;11.628;2023-03-31T03:40:19;10.48;;;6.18;;
1014;SDS011;8170;48.118;11.628;2023-03-31T03:41:22;11.93;;;6.50;;
1014;SDS011;8170;48.118;11.628;2023-03-31T03:42:24;9.60;;;6.65;;
1014;SDS011;8170;48.118;11.628;2023-03-31T03:43:27;8.93;;;7.13;;
1014;SDS011;8170;48.118;11.628;2023-03-31T03:44:31;7.13;;;6.30;;
1014;SDS011;8170;48.118;11.628;2023-03-31T03:45:34;9.63;;;5.85;;
1014;SDS011;8170;48.118;11.628;2023-03-31T03:46:36;11.15;;;7.03;;
1014;SDS011;8170;48.118;11.628;2023-03-31T03:47:40;9.15;;;6.90;;
1014;SDS011;8170;48.118;11.628;2023-03-31T03:48:42;9.60;;;7.63;;
1014;SDS011;8170;48.118;11.628;2023-03-31T03:49:45;16.02;;;8.77;;
1014;SDS011;8170;48.118;11.628;2023-03-31T03:50:49;10.40;;;7.70;;
1014;SDS011;8170;48.118;11.628;2023-03-31T03:51:53;8.02;;;6.85;;
1014;SDS011;8170;48.118;11.628;2023-03-31T03:52:55;9.00;;;6.75;;
1014;SDS011;8170;48.118;11.628;2023-03-31T03:53:59;9.57;;;6.72;;
1014;SDS011;8170;48.118;11.628;2023-03-31T03:55:01;8.20;;;6.32;;
1014;SDS011;8170;48.118;11.628;2023-03-31T03:56:04;8.85;;;6.43;;
1014;SDS011;8170;48.118;11.628;2023-03-31T03:57:07;8.75;;;6.97;;
1014;SDS011;8170;48.118;11.628;2023-03-31T03:58:10;10.75;;;6.50;;
1014;SDS011;8170;48.118;11.628;2023-03-31T03:59:12;12.20;;;6.85;;
1014;SDS011;8170;48.118;11.628;2023-03-31T04:00:18;13.13;;;7.18;;
1014;SDS011;8170;48.118;11.628;2023-03-31T04:01:20;12.60;;;6.95;;
1014;SDS011;8170;48.118;11.628;2023-03-31T04:02:23;7.68;;;6.22;;
1014;SDS011;8170;48.118;11.628;2023-03-31T04:03:29;9.48;;;6.80;;
1014;SDS011;8170;48.118;11.628;2023-03-31T04:04:32;8.48;;;6.70;;
1014;SDS011;8170;48.118;11.628;2023-03-31T04:05:34;8.80;;;5.93;;
1014;SDS011;8170;48.118;11.628;2023-03-31T04:06:38;10.18;;;6.20;;
1014;SDS011;8170;48.118;11.628;2023-03-31T04:07:40;8.05;;;6.25;;
1014;SDS011;8170;48.118;11.628;2023-03-31T04:08:43;13.50;;;7.43;;
1014;SDS011;8170;48.118;11.628;2023-03-31T04:09:45;9.73;;;6.43;;
1014;SDS011;8170;48.118;11.628;2023-03-31T04:10:48;10.18;;;6.43;;
1014;SDS011;8170;48.118;11.628;2023-03-31T04:11:51;7.50;;;5.95;;
1014;SDS011;8170;48.118;11.628;2023-03-31T04:12:54;11.73;;;6.72;;
1014;SDS011;8170;48.118;11.628;2023-03-31T04:13:56;8.70;;;6.22;;
1014;SDS011;8170;48.118;11.628;2023-03-31T04:14:59;7.07;;;5.32;;
1014;SDS011;8170;48.118;11.628;2023-03-31T04:16:03;9.32;;;6.25;;
1014;SDS011;8170;48.118;11.628;2023-03-31T04:17:07;8.57;;;6.40;;
1014;SDS011;8170;48.118;11.628;2023-03-31T04:18:11;8.82;;;6.32;;
1014;SDS011;8170;48.118;11.628;2023-03-31T04:19:23;7.68;;;5.65;;
1014;SDS011;8170;48.118;11.628;2023-03-31T04:20:26;11.05;;;6.78;;
1014;SDS011;8170;48.118;11.628;2023-03-31T04:21:31;10.32;;;6.50;;
1014;SDS011;8170;48.118;11.628;2023-03-31T04:22:35;11.85;;;7.05;;
1014;SDS011;8170;48.118;11.628;2023-03-31T04:23:41;10.43;;;5.82;;
1014;SDS011;8170;48.118;11.628;2023-03-31T04:24:47;10.30;;;6.70;;
1014;SDS011;8170;48.118;11.628;2023-03-31T04:25:53;16.10;;;7.65;;
1014;SDS011;8170;48.118;11.628;2023-03-31T04:26:55;9.32;;;6.57;;
1014;SDS011;8170;48.118;11.628;2023-03-31T04:27:59;10.50;;;8.18;;
1014;SDS011;8170;48.118;11.628;2023-03-31T04:29:01;11.95;;;6.78;;
1014;SDS011;8170;48.118;11.628;2023-03-31T04:30:04;8.85;;;6.85;;
1014;SDS011;8170;48.118;11.628;2023-03-31T04:31:10;13.07;;;7.18;;
1014;SDS011;8170;48.118;11.628;2023-03-31T04:32:16;13.07;;;8.93;;
1014;SDS011;8170;48.118;11.628;2023-03-31T04:33:21;9.48;;;8.35;;
1014;SDS011;8170;48.118;11.628;2023-03-31T04:34:25;9.80;;;7.50;;
1014;SDS011;8170;48.118;11.628;2023-03-31T04:35:35;9.35;;;6.70;;
1014;SDS011;8170;48.118;11.628;2023-03-31T04:36:49;11.25;;;7.50;;
1014;SDS011;8170;48.118;11.628;2023-03-31T04:37:52;11.65;;;6.38;;
1014;SDS011;8170;48.118;11.628;2023-03-31T04:38:59;11.75;;;6.32;;
1014;SDS011;8170;48.118;11.628;2023-03-31T04:40:02;7.47;;;6.55;;
1014;SDS011;8170;48.118;11.628;2023-03-31T04:41:10;8.85;;;6.85;;
1014;SDS011;8170;48.118;11.628;2023-03-31T04:42:12;9.18;;;7.60;;
1014;SDS011;8170;48.118;11.628;2023-03-31T04:43:16;11.60;;;7.60;;
1014;SDS011;8170;48.118;11.628;2023-03-31T04:44:19;11.75;;;9.00;;
1014;SDS011;8170;48.118;11.628;2023-03-31T04:45:23;11.50;;;9.10;;
1014;SDS011;8170;48.118;11.628;2023-03-31T04:46:26;9.73;;;8.73;;
1014;SDS011;8170;48.118;11.628;2023-03-31T04:47:30;13.13;;;9.20;;
1014;SDS011;8170;48.118;11.628;2023-03-31T04:48:32;10.00;;;8.93;;
1014;SDS011;8170;48.118;11.628;2023-03-31T04:49:35;15.10;;;9.10;;
1014;SDS011;8170;48.118;11.628;2023-03-31T04:50:37;13.02;;;8.55;;
1014;SDS011;8170;48.118;11.628;2023-03-31T04:51:41;16.08;;;8.90;;
1014;SDS011;8170;48.118;11.628;2023-03-31T04:52:45;15.10;;;9.77;;
1014;SDS011;8170;48.118;11.628;2023-03-31T04:53:47;12.23;;;9.93;;
1014;SDS011;8170;48.118;11.628;2023-03-31T04:54:50;14.82;;;9.80;;
1014;SDS011;8170;48.118;11.628;2023-03-31T04:55:52;12.57;;;9.68;;
1014;SDS011;8170;48.118;11.628;2023-03-31T04:56:55;9.77;;;8.88;;
1014;SDS011;8170;48.118;11.628;2023-03-31T04:57:58;13.80;;;9.60;;
1014;SDS011;8170;48.118;11.628;2023-03-31T04:59:01;11.27;;;10.10;;
1014;SDS011;8170;48.118;11.628;2023-03-31T05:00:04;19.85;;;10.32;;
1014;SDS011;8170;48.118;11.628;2023-03-31T05:01:09;14.13;;;10.48;;
1014;SDS011;8170;48.118;11.628;2023-03-31T05:02:15;11.98;;;10.55;;
1014;SDS011;8170;48.118;11.628;2023-03-31T05:03:25;15.90;;;9.35;;
1014;SDS011;8170;48.118;11.628;2023-03-31T05:04:28;11.50;;;8.68;;
1014;SDS011;8170;48.118;11.628;2023-03-31T05:05:31;11.70;;;9.68;;
1014;SDS011;8170;48.118;11.628;2023-03-31T05:06:33;12.93;;;9.65;;
1014;SDS011;8170;48.118;11.628;2023-03-31T05:07:36;13.23;;;10.40;;
1014;SDS011;8170;48.118;11.628;2023-03-31T05:08:39;10.23;;;9.23;;
1014;SDS011;8170;48.118;11.628;2023-03-31T05:09:42;15.65;;;10.20;;
1014;SDS011;8170;48.118;11.628;2023-03-31T05:10:44;13.88;;;10.05;;
1014;SDS011;8170;48.118;11.628;2023-03-31T05:11:47;12.93;;;9.82;;
1014;SDS011;8170;48.118;11.628;2023-03-31T05:12:49;13.25;;;9.60;;
1014;SDS011;8170;48.118;11.628;2023-03-31T05:13:53;12.90;;;9.98;;
1014;SDS011;8170;48.118;11.628;2023-03-31T05:14:55;13.73;;;11.70;;
1014;SDS011;8170;48.118;11.628;2023-03-31T05:16:04;16.88;;;9.75;;
1014;SDS011;8170;48.118;11.628;2023-03-31T05:17:07;9.98;;;8.85;;
1014;SDS011;8170;48.118;11.628;2023-03-31T05:18:11;12.93;;;10.02;;
1014;SDS011;8170;48.118;11.628;2023-03-31T05:19:14;13.68;;;10.35;;
1014;SDS011;8170;48.118;11.628;2023-03-31T05:20:18;11.75;;;9.65;;
1014;SDS011;8170;48.118;11.628;2023-03-31T05:21:21;10.95;;;9.10;;
1014;SDS011;8170;48.118;11.628;2023-03-31T05:22:24;11.82;;;10.27;;
1014;SDS011;8170;48.118;11.628;2023-03-31T05:23:27;16.13;;;10.38;;
1014;SDS011;8170;48.118;11.628;2023-03-31T05:24:31;12.45;;;9.80;;
1014;SDS011;8170;48.118;11.628;2023-03-31T05:25:34;13.38;;;10.82;;
1014;SDS011;8170;48.118;11.628;2023-03-31T05:26:36;11.25;;;9.23;;
1014;SDS011;8170;48.118;11.628;2023-03-31T05:27:41;12.38;;;8.85;;
1014;SDS011;8170;48.118;11.628;2023-03-31T05:28:43;10.15;;;9.10;;
1014;SDS011;8170;48.118;11.628;2023-03-31T05:29:47;15.68;;;10.20;;
1014;SDS011;8170;48.118;11.628;2023-03-31T05:30:50;13.73;;;9.05;;
1014;SDS011;8170;48.118;11.628;2023-03-31T05:31:52;18.45;;;11.07;;
1014;SDS011;8170;48.118;11.628;2023-03-31T05:32:55;18.33;;;10.93;;
1014;SDS011;8170;48.118;11.628;2023-03-31T05:33:59;13.65;;;9.63;;
1014;SDS011;8170;48.118;11.628;2023-03-31T05:35:02;12.55;;;9.68;;
1014;SDS011;8170;48.118;11.628;2023-03-31T05:36:06;19.98;;;9.73;;
1014;SDS011;8170;48.118;11.628;2023-03-31T05:37:10;11.02;;;9.05;;
1014;SDS011;8170;48.118;11.628;2023-03-31T05:38:13;11.43;;;10.25;;
1014;SDS011;8170;48.118;11.628;2023-03-31T05:39:16;12.10;;;8.77;;
1014;SDS011;8170;48.118;11.628;2023-03-31T05:40:19;11.20;;;9.82;;
1014;SDS011;8170;48.118;11.628;2023-03-31T05:41:21;11.40;;;8.38;;
1014;SDS011;8170;48.118;11.628;2023-03-31T05:42:24;11.13;;;8.98;;
1014;SDS011;8170;48.118;11.628;2023-03-31T05:43:26;16.67;;;10.30;;
1014;SDS011;8170;48.118;11.628;2023-03-31T05:44:30;11.98;;;9.40;;
1014;SDS011;8170;48.118;11.628;2023-03-31T05:45:33;13.35;;;10.23;;
1014;SDS011;8170;48.118;11.628;2023-03-31T05:46:36;10.07;;;8.98;;
1014;SDS011;8170;48.118;11.628;2023-03-31T05:47:38;15.55;;;9.27;;
1014;SDS011;8170;48.118;11.628;2023-03-31T05:48:42;12.00;;;9.65;;
1014;SDS011;8170;48.118;11.628;2023-03-31T05:49:46;15.57;;;9.30;;
1014;SDS011;8170;48.118;11.628;2023-03-31T05:50:49;12.95;;;10.63;;
1014;SDS011;8170;48.118;11.628;2023-03-31T05:51:52;10.60;;;9.18;;
1014;SDS011;8170;48.118;11.628;2023-03-31T05:52:55;14.45;;;9.30;;
1014;SDS011;8170;48.118;11.628;2023-03-31T05:53:58;11.25;;;8.25;;
1014;SDS011;8170;48.118;11.628;2023-03-31T05:55:01;13.40;;;9.63;;
1014;SDS011;8170;48.118;11.628;2023-03-31T05:56:04;15.65;;;9.27;;
1014;SDS011;8170;48.118;11.628;2023-03-31T05:57:08;13.00;;;9.90;;
1014;SDS011;8170;48.118;11.628;2023-03-31T05:58:10;14.90;;;9.75;;
1014;SDS011;8170;48.118;11.628;2023-03-31T05:59:14;12.75;;;10.30;;
1014;SDS011;8170;48.118;11.628;2023-03-31T06:00:17;13.25;;;9.25;;
1014;SDS011;8170;48.118;11.628;2023-03-31T06:01:20;17.17;;;10.00;;
1014;SDS011;8170;48.118;11.628;2023-03-31T06:02:24;13.05;;;7.93;;
1014;SDS011;8170;48.118;11.628;2023-03-31T06:03:27;11.15;;;9.38;;
1014;SDS011;8170;48.118;11.628;2023-03-31T06:04:29;12.73;;;9.73;;
1014;SDS011;8170;48.118;11.628;2023-03-31T06:05:34;19.38;;;9.20;;
1014;SDS011;8170;48.118;11.628;2023-03-31T06:06:37;12.93;;;9.38;;
1014;SDS011;8170;48.118;11.628;2023-03-31T06:07:40;13.70;;;9.88;;
1014;SDS011;8170;48.118;11.628;2023-03-31T06:08:42;16.15;;;9.00;;
1014;SDS011;8170;48.118;11.628;2023-03-31T06:09:46;18.88;;;10.35;;
1014;SDS011;8170;48.118;11.628;2023-03-31T06:10:49;13.30;;;9.25;;
1014;SDS011;8170;48.118;11.628;2023-03-31T06:11:52;12.95;;;8.90;;
1014;SDS011;8170;48.118;11.628;2023-03-31T06:12:55;12.93;;;8.95;;
1014;SDS011;8170;48.118;11.628;2023-03-31T06:13:59;10.90;;;9.10;;
1014;SDS011;8170;48.118;11.628;2023-03-31T06:15:02;12.73;;;8.30;;
1014;SDS011;8170;48.118;11.628;2023-03-31T06:16:04;16.35;;;9.50;;
1014;SDS011;8170;48.118;11.628;2023-03-31T06:17:08;14.07;;;9.40;;
1014;SDS011;8170;48.118;11.628;2023-03-31T06:18:12;11.25;;;8.55;;
1014;SDS011;8170;48.118;11.628;2023-03-31T06:19:14;11.43;;;8.40;;
1014;SDS011;8170;48.118;11.628;2023-03-31T06:20:17;9.70;;;7.38;;
1014;SDS011;8170;48.118;11.628;2023-03-31T06:21:30;17.10;;;8.10;;
1014;SDS011;8170;48.118;11.628;2023-03-31T06:22:33;11.55;;;7.93;;
1014;SDS011;8170;48.118;11.628;2023-03-31T06:23:35;12.35;;;8.15;;
1014;SDS011;8170;48.118;11.628;2023-03-31T06:24:38;15.02;;;8.00;;
1014;SDS011;8170;48.118;11.628;2023-03-31T06:25:41;11.13;;;8.32;;
1014;SDS011;8170;48.118;11.628;2023-03-31T06:26:52;11.25;;;7.85;;
1014;SDS011;8170;48.118;11.628;2023-03-31T06:27:55;11.05;;;8.40;;
1014;SDS011;8170;48.118;11.628;2023-03-31T06:28:57;12.30;;;7.85;;
1014;SDS011;8170;48.118;11.628;2023-03-31T06:30:01;16.77;;;8.27;;
1014;SDS011;8170;48.118;11.628;2023-03-31T06:31:04;8.85;;;7.93;;
1014;SDS011;8170;48.118;11.628;2023-03-31T06:32:08;10.57;;;7.95;;
1014;SDS011;8170;48.118;11.628;2023-03-31T06:33:12;11.88;;;7.85;;
1014;SDS011;8170;48.118;11.628;2023-03-31T06:34:14;8.95;;;7.97;;
1014;SDS011;8170;48.118;11.628;2023-03-31T06:35:21;12.30;;;7.53;;
1014;SDS011;8170;48.118;11.628;2023-03-31T06:36:27;9.50;;;8.25;;
1014;SDS011;8170;48.118;11.628;2023-03-31T06:37:31;14.23;;;7.43;;
1014;SDS011;8170;48.118;11.628;2023-03-31T06:38:34;8.98;;;7.70;;
1014;SDS011;8170;48.118;11.628;2023-03-31T06:39:39;8.43;;;7.07;;
1014;SDS011;8170;48.118;11.628;2023-03-31T06:40:42;9.52;;;7.28;;
1014;SDS011;8170;48.118;11.628;2023-03-31T06:41:44;14.38;;;7.85;;
1014;SDS011;8170;48.118;11.628;2023-03-31T06:42:55;10.10;;;7.15;;
1014;SDS011;8170;48.118;11.628;2023-03-31T06:43:58;9.57;;;7.10;;
1014;SDS011;8170;48.118;11.628;2023-03-31T06:45:02;9.23;;;7.63;;
1014;SDS011;8170;48.118;11.628;2023-03-31T06:46:04;9.68;;;7.07;;
1014;SDS011;8170;48.118;11.628;2023-03-31T06:47:08;8.10;;;6.20;;